Lachine, Canada
Current Conditions -  °F | °C
As of 6:00 PM on Thursday 27 Nov 2014 (Local Time) from CYUL Reporting Station
Broken Clouds Broken Clouds  
Wind Chill: 21°   Ceiling: 11000
Heat Index: 27°   Visibility: 15mi
Dew Point: 16°   Wind: 5mph
Humidity: 64%   Direction: 260°W
Pressure: 30.04"   Gusts: NA
Location:  45.43°N, 73.68°W
Report Text: CYUL 272300Z 26004KT 15SM BKN110 M03/M09 A3004 RMK AS7 SLP176
Loading
Personal Weather Stations






























Interactive Weather Map New forecast layout! Learn more

10-Day Weather Forecast

Advertisements
Track Severe Weather on mobile